createdAt,value
2019-05-19T00:00:09.217Z,99.90
2019-05-19T00:02:40.663Z,99.90
2019-05-19T00:05:09.755Z,99.90
2019-05-19T00:07:38.781Z,99.90
2019-05-19T00:10:08.378Z,99.90
2019-05-19T00:12:37.474Z,99.90
2019-05-19T00:15:06.762Z,99.90
2019-05-19T00:17:35.876Z,99.90
2019-05-19T00:20:08.587Z,99.90
2019-05-19T00:22:37.654Z,99.90
2019-05-19T00:25:06.830Z,99.90
2019-05-19T00:27:35.962Z,99.90
2019-05-19T00:30:06.872Z,99.90
2019-05-19T00:32:36.236Z,99.90
2019-05-19T00:35:06.695Z,99.90
2019-05-19T00:37:35.420Z,99.90
2019-05-19T00:40:06.305Z,99.90
2019-05-19T00:42:35.479Z,99.90
2019-05-19T00:45:06.414Z,99.90
2019-05-19T00:47:35.483Z,99.90
2019-05-19T00:50:06.945Z,99.90
2019-05-19T00:52:36.449Z,99.90
2019-05-19T00:55:06.592Z,99.90
2019-05-19T00:57:36.926Z,99.90
2019-05-19T01:00:10.263Z,99.90
2019-05-19T01:02:39.052Z,99.90
2019-05-19T01:05:08.560Z,99.90
2019-05-19T01:07:37.674Z,99.90
2019-05-19T01:10:08.012Z,99.90
2019-05-19T01:12:36.780Z,99.90
2019-05-19T01:15:09.787Z,99.90
2019-05-19T01:17:39.011Z,99.90
2019-05-19T01:20:08.600Z,99.90
2019-05-19T01:22:37.375Z,99.90
2019-05-19T01:25:08.123Z,99.90
2019-05-19T01:27:37.235Z,99.90
2019-05-19T01:30:10.790Z,99.90
2019-05-19T01:32:39.822Z,99.90
2019-05-19T01:35:09.221Z,99.90
2019-05-19T01:37:38.322Z,99.90
2019-05-19T01:40:08.432Z,99.90
2019-05-19T01:42:37.639Z,99.90
2019-05-19T01:45:11.058Z,99.90
2019-05-19T01:47:40.153Z,99.90
2019-05-19T01:50:18.611Z,99.90
2019-05-19T01:52:41.709Z,99.90
2019-05-19T01:55:11.684Z,99.90
2019-05-19T01:57:40.827Z,99.90
2019-05-19T02:00:10.942Z,99.90
2019-05-19T02:02:39.757Z,99.90
2019-05-19T02:05:09.443Z,99.90
2019-05-19T02:07:38.204Z,99.90
2019-05-19T02:10:09.518Z,99.90
2019-05-19T02:12:38.239Z,99.90
2019-05-19T02:15:09.510Z,99.90
2019-05-19T02:17:38.222Z,99.90
2019-05-19T02:20:08.442Z,99.90
2019-05-19T02:22:37.175Z,99.90
2019-05-19T02:25:06.735Z,99.90
2019-05-19T02:27:35.516Z,99.90
2019-05-19T02:30:06.537Z,99.90
2019-05-19T02:32:35.537Z,99.90
2019-05-19T02:35:06.099Z,99.90
2019-05-19T02:37:34.834Z,99.90
2019-05-19T02:40:04.733Z,99.90
2019-05-19T02:42:35.575Z,99.90
2019-05-19T02:45:06.954Z,99.90
2019-05-19T02:47:37.508Z,99.90
2019-05-19T02:50:08.368Z,99.90
2019-05-19T02:52:39.551Z,99.90
2019-05-19T02:55:08.976Z,99.90
2019-05-19T02:57:38.483Z,99.90
2019-05-19T03:00:11.082Z,99.90
2019-05-19T03:02:39.798Z,99.90
2019-05-19T03:05:09.283Z,99.90
2019-05-19T03:07:38.405Z,99.90
2019-05-19T03:10:08.174Z,99.90
2019-05-19T03:12:37.303Z,99.90
2019-05-19T03:15:07.108Z,99.90
2019-05-19T03:17:36.295Z,99.90
2019-05-19T03:20:06.474Z,99.90
2019-05-19T03:22:35.616Z,99.90
2019-05-19T03:25:07.682Z,99.90
2019-05-19T03:27:36.873Z,99.90
2019-05-19T03:30:27.464Z,99.90
2019-05-19T03:32:57.848Z,99.90
2019-05-19T03:35:26.567Z,99.90
2019-05-19T03:37:55.346Z,99.90
2019-05-19T03:40:24.372Z,99.90
2019-05-19T03:42:53.466Z,99.90
2019-05-19T03:45:22.673Z,99.90
2019-05-19T03:47:51.387Z,99.90
2019-05-19T03:50:20.127Z,99.90
2019-05-19T03:52:49.242Z,99.90
2019-05-19T03:55:18.134Z,99.90
2019-05-19T03:57:46.936Z,99.90
2019-05-19T04:00:16.116Z,99.90
2019-05-19T04:02:44.853Z,99.90
2019-05-19T04:05:14.218Z,99.90
2019-05-19T04:07:43.003Z,99.90
2019-05-19T04:10:12.233Z,99.90
2019-05-19T04:12:41.016Z,99.90
2019-05-19T04:15:10.844Z,99.90
2019-05-19T04:17:41.328Z,99.90
2019-05-19T04:20:10.814Z,99.90
2019-05-19T04:22:39.958Z,99.90
2019-05-19T04:25:10.374Z,99.90
2019-05-19T04:27:39.467Z,99.90
2019-05-19T04:30:09.749Z,99.90
2019-05-19T04:32:38.460Z,99.90
2019-05-19T04:35:08.267Z,99.90
2019-05-19T04:37:36.993Z,99.90
2019-05-19T04:40:06.746Z,99.90
2019-05-19T04:42:35.786Z,99.90
2019-05-19T04:45:07.889Z,99.90
2019-05-19T04:47:36.954Z,99.90
2019-05-19T04:50:08.100Z,99.90
2019-05-19T04:52:37.194Z,99.90
2019-05-19T04:55:06.931Z,99.90
2019-05-19T04:57:37.012Z,99.90
2019-05-19T05:00:07.774Z,99.90
2019-05-19T05:02:36.868Z,99.90
2019-05-19T05:05:07.777Z,99.90
2019-05-19T05:07:37.508Z,99.90
2019-05-19T05:10:06.610Z,99.90
2019-05-19T05:12:35.739Z,99.90
2019-05-19T05:15:06.540Z,99.90
2019-05-19T05:17:35.272Z,99.90
2019-05-19T05:20:07.830Z,99.90
2019-05-19T05:22:36.952Z,99.90
2019-05-19T05:25:07.126Z,99.90
2019-05-19T05:27:36.331Z,99.90
2019-05-19T05:30:09.212Z,99.90
2019-05-19T05:32:38.303Z,99.90
2019-05-19T05:35:08.081Z,99.90
2019-05-19T05:37:36.867Z,99.90
2019-05-19T05:40:07.670Z,99.90
2019-05-19T05:42:36.396Z,99.90
2019-05-19T05:45:09.753Z,99.90
2019-05-19T05:47:38.559Z,99.90
2019-05-19T05:50:08.020Z,99.90
2019-05-19T05:52:38.855Z,99.90
2019-05-19T05:55:07.793Z,99.90
2019-05-19T05:57:36.551Z,99.90
2019-05-19T06:00:09.439Z,99.90
2019-05-19T06:02:38.525Z,99.90
2019-05-19T06:05:07.958Z,99.90
2019-05-19T06:07:36.859Z,99.90
2019-05-19T06:10:07.682Z,99.90
2019-05-19T06:12:36.475Z,99.90
2019-05-19T06:15:06.063Z,99.90
2019-05-19T06:17:35.177Z,99.90
2019-05-19T06:20:05.985Z,99.90
2019-05-19T06:22:34.828Z,99.90
2019-05-19T06:25:03.943Z,99.90
2019-05-19T06:27:33.205Z,99.90
2019-05-19T06:30:02.273Z,99.90
2019-05-19T06:32:32.649Z,99.90
2019-05-19T06:35:01.974Z,99.90
2019-05-19T06:37:30.747Z,99.90
2019-05-19T06:39:59.886Z,99.90
2019-05-19T06:42:29.104Z,99.90
2019-05-19T06:44:58.914Z,99.90
2019-05-19T06:47:28.024Z,99.90
2019-05-19T06:49:57.110Z,99.90
2019-05-19T06:52:25.880Z,99.90
2019-05-19T06:54:54.638Z,99.90
2019-05-19T06:57:23.554Z,99.90
2019-05-19T06:59:52.304Z,99.90
2019-05-19T07:02:22.166Z,99.90
2019-05-19T07:04:51.276Z,99.90
2019-05-19T07:07:19.994Z,99.90
2019-05-19T07:09:58.043Z,99.90
2019-05-19T07:12:19.589Z,99.90
2019-05-19T07:14:48.790Z,99.90
2019-05-19T07:17:17.531Z,99.90
2019-05-19T07:19:46.263Z,99.90
2019-05-19T07:22:14.976Z,99.90
2019-05-19T07:24:44.046Z,99.90
2019-05-19T07:27:12.829Z,99.90
2019-05-19T07:29:41.568Z,99.90
2019-05-19T07:32:10.229Z,99.90
2019-05-19T07:34:39.353Z,99.90
2019-05-19T07:37:08.403Z,99.90
2019-05-19T07:39:37.513Z,99.90
2019-05-19T07:42:06.622Z,99.90
2019-05-19T07:44:35.679Z,99.90
2019-05-19T07:47:04.422Z,99.90
2019-05-19T07:49:33.583Z,99.90
2019-05-19T07:52:02.322Z,99.90
2019-05-19T07:54:31.361Z,99.90
2019-05-19T07:57:00.474Z,99.90
2019-05-19T07:59:29.664Z,99.90
2019-05-19T08:01:58.777Z,99.90
2019-05-19T08:04:27.866Z,99.90
2019-05-19T08:06:56.588Z,99.90
2019-05-19T08:09:25.333Z,99.90
2019-05-19T08:11:54.433Z,99.90
2019-05-19T08:14:23.099Z,99.90
2019-05-19T08:16:52.221Z,99.90
2019-05-19T08:19:20.961Z,99.90
2019-05-19T08:21:50.093Z,99.90
2019-05-19T08:24:18.827Z,99.90
2019-05-19T08:26:47.562Z,99.90
2019-05-19T08:29:16.327Z,99.90
2019-05-19T08:31:45.137Z,99.90
2019-05-19T08:34:13.896Z,99.90
2019-05-19T08:36:43.291Z,99.90
2019-05-19T08:39:12.345Z,99.90
2019-05-19T08:41:41.072Z,99.90
2019-05-19T08:44:09.931Z,99.90
2019-05-19T08:46:39.030Z,99.90
2019-05-19T08:49:08.094Z,99.90
2019-05-19T08:51:37.219Z,99.90
2019-05-19T08:54:14.258Z,99.90
2019-05-19T08:56:37.170Z,99.90
2019-05-19T08:59:06.246Z,99.90
2019-05-19T09:01:35.083Z,99.90
2019-05-19T09:04:03.808Z,99.90
2019-05-19T09:06:32.610Z,99.90
2019-05-19T09:09:01.372Z,99.90
2019-05-19T09:11:30.492Z,99.90
2019-05-19T09:13:59.274Z,99.90
2019-05-19T09:16:28.679Z,99.90
2019-05-19T09:18:57.799Z,99.90
2019-05-19T09:21:26.599Z,99.90
2019-05-19T09:23:55.776Z,99.90
2019-05-19T09:26:24.870Z,99.90
2019-05-19T09:28:53.695Z,99.90
2019-05-19T09:31:22.870Z,99.90
2019-05-19T09:33:51.800Z,99.90
2019-05-19T09:36:20.865Z,99.90
2019-05-19T09:38:49.568Z,99.90
2019-05-19T09:41:18.638Z,99.90
2019-05-19T09:43:47.379Z,99.90
2019-05-19T09:46:16.173Z,99.90
2019-05-19T09:48:45.302Z,99.90
2019-05-19T09:51:14.042Z,99.90
2019-05-19T09:53:43.082Z,99.90
2019-05-19T09:56:11.870Z,99.90
2019-05-19T09:58:40.675Z,99.90
2019-05-19T10:01:09.459Z,99.80
2019-05-19T10:03:38.553Z,99.90
2019-05-19T10:06:07.654Z,99.90
2019-05-19T10:08:38.909Z,99.90
2019-05-19T10:11:43.028Z,99.90
2019-05-19T10:14:11.803Z,99.90
2019-05-19T10:16:40.526Z,99.90
2019-05-19T10:19:09.574Z,99.90
2019-05-19T10:21:38.308Z,99.90
2019-05-19T10:24:07.373Z,99.90
2019-05-19T10:26:36.218Z,99.90
2019-05-19T10:29:05.255Z,99.90
2019-05-19T10:31:34.351Z,99.90
2019-05-19T10:34:03.471Z,99.50
2019-05-19T10:36:32.563Z,99.50
2019-05-19T10:39:01.639Z,98.70
2019-05-19T10:41:30.754Z,98.50
2019-05-19T10:44:02.011Z,99.00
2019-05-19T10:46:30.813Z,99.10
2019-05-19T10:48:59.654Z,99.10
2019-05-19T10:51:28.394Z,98.30
2019-05-19T10:53:57.447Z,98.30
2019-05-19T10:56:26.162Z,96.40
2019-05-19T10:58:55.232Z,96.70
2019-05-19T11:01:24.349Z,96.10
2019-05-19T11:03:53.426Z,92.90
2019-05-19T11:06:22.531Z,92.30
2019-05-19T11:08:51.630Z,92.90
2019-05-19T11:11:20.742Z,93.00
2019-05-19T11:13:49.451Z,90.60
2019-05-19T11:16:18.244Z,92.90
2019-05-19T11:18:46.950Z,93.20
2019-05-19T11:21:15.660Z,91.40
2019-05-19T11:23:44.763Z,90.40
2019-05-19T11:26:13.529Z,88.10
2019-05-19T11:28:42.240Z,90.90
2019-05-19T11:31:10.899Z,91.20
2019-05-19T11:33:40.027Z,90.40
2019-05-19T11:36:08.751Z,89.70
2019-05-19T11:38:37.792Z,90.60
2019-05-19T11:41:06.560Z,88.30
2019-05-19T11:43:35.394Z,86.70
2019-05-19T11:46:04.160Z,89.70
2019-05-19T11:48:32.880Z,90.30
2019-05-19T11:51:01.606Z,90.20
2019-05-19T11:53:30.390Z,89.60
2019-05-19T11:56:06.728Z,83.70
2019-05-19T11:58:29.881Z,84.00
2019-05-19T12:00:58.966Z,85.00
2019-05-19T12:03:28.060Z,88.00
2019-05-19T12:05:56.880Z,89.40
2019-05-19T12:08:25.930Z,86.90
2019-05-19T12:10:55.029Z,87.30
2019-05-19T12:13:24.143Z,86.40
2019-05-19T12:15:53.228Z,87.50
2019-05-19T12:18:21.970Z,89.50
2019-05-19T12:20:51.009Z,88.40
2019-05-19T12:23:20.141Z,88.40
2019-05-19T12:25:49.227Z,88.80
2019-05-19T12:28:17.943Z,88.00
2019-05-19T12:30:47.100Z,88.10
2019-05-19T12:33:15.846Z,87.30
2019-05-19T12:35:44.599Z,86.60
2019-05-19T12:38:13.691Z,85.00
2019-05-19T12:40:43.265Z,84.60
2019-05-19T12:43:12.264Z,86.10
2019-05-19T12:45:41.409Z,89.10
2019-05-19T12:48:10.144Z,87.10
2019-05-19T12:50:39.168Z,83.80
2019-05-19T12:53:08.351Z,82.70
2019-05-19T12:55:37.458Z,83.70
2019-05-19T12:58:06.550Z,83.90
2019-05-19T13:00:35.764Z,84.10
2019-05-19T13:03:04.775Z,82.10
2019-05-19T13:05:33.519Z,83.50
2019-05-19T13:08:02.261Z,85.70
2019-05-19T13:10:31.840Z,84.80
2019-05-19T13:13:00.915Z,84.80
2019-05-19T13:15:29.710Z,84.30
2019-05-19T13:17:58.522Z,83.90
2019-05-19T13:20:27.713Z,84.70
2019-05-19T13:22:56.906Z,85.00
2019-05-19T13:25:25.727Z,85.80
2019-05-19T13:27:54.551Z,86.50
2019-05-19T13:30:23.302Z,87.10
2019-05-19T13:32:52.453Z,86.60
2019-05-19T13:35:21.260Z,85.40
2019-05-19T13:37:51.215Z,84.90
2019-05-19T13:40:20.571Z,82.60
2019-05-19T13:42:49.326Z,83.70
2019-05-19T13:45:18.982Z,80.90
2019-05-19T13:47:47.704Z,83.60
2019-05-19T13:50:16.839Z,82.60
2019-05-19T13:52:46.347Z,83.60
2019-05-19T13:55:15.181Z,81.80
2019-05-19T13:57:44.342Z,82.60
2019-05-19T14:00:14.197Z,84.10
2019-05-19T14:02:43.369Z,86.30
2019-05-19T14:05:12.460Z,87.20
2019-05-19T14:07:41.215Z,87.20
2019-05-19T14:10:11.150Z,85.50
2019-05-19T14:12:39.858Z,84.70
2019-05-19T14:15:09.665Z,84.00
2019-05-19T14:17:38.492Z,84.80
2019-05-19T14:20:08.876Z,81.50
2019-05-19T14:22:37.898Z,80.70
2019-05-19T14:25:07.789Z,81.30
2019-05-19T14:27:36.888Z,80.90
2019-05-19T14:30:08.779Z,80.70
2019-05-19T14:32:37.738Z,79.90
2019-05-19T14:35:07.668Z,81.10
2019-05-19T14:37:36.411Z,81.70
2019-05-19T14:40:07.292Z,80.60
2019-05-19T14:42:53.285Z,81.30
2019-05-19T14:45:22.715Z,80.90
2019-05-19T14:47:51.449Z,77.50
2019-05-19T14:50:20.662Z,79.50
2019-05-19T14:52:49.781Z,81.60
2019-05-19T14:55:19.103Z,81.30
2019-05-19T14:57:48.084Z,81.10
2019-05-19T15:00:17.946Z,81.20
2019-05-19T15:02:46.695Z,81.50
2019-05-19T15:05:15.610Z,82.60
2019-05-19T15:07:44.755Z,81.20
2019-05-19T15:10:14.467Z,83.70
2019-05-19T15:12:43.571Z,84.10
2019-05-19T15:15:12.456Z,83.50
2019-05-19T15:17:41.232Z,83.50
2019-05-19T15:20:12.079Z,84.60
2019-05-19T15:22:41.174Z,85.10
2019-05-19T15:25:10.572Z,87.60
2019-05-19T15:27:39.730Z,87.70
2019-05-19T15:30:13.696Z,87.40
2019-05-19T15:32:39.664Z,88.40
2019-05-19T15:35:08.807Z,88.90
2019-05-19T15:37:37.527Z,90.00
2019-05-19T15:40:08.340Z,90.30
2019-05-19T15:42:37.060Z,90.40
2019-05-19T15:45:07.048Z,90.80
2019-05-19T15:47:35.812Z,90.80
2019-05-19T15:50:07.613Z,91.50
2019-05-19T15:52:36.387Z,91.30
2019-05-19T15:55:06.693Z,91.30
2019-05-19T15:57:36.110Z,91.80
2019-05-19T16:00:07.795Z,92.30
2019-05-19T16:02:36.857Z,92.50
2019-05-19T16:05:09.284Z,92.40
2019-05-19T16:07:38.072Z,92.40
2019-05-19T16:10:11.021Z,92.60
2019-05-19T16:12:40.020Z,93.20
2019-05-19T16:15:09.602Z,93.40
2019-05-19T16:17:38.723Z,93.30
2019-05-19T16:20:08.147Z,93.30
2019-05-19T16:22:36.866Z,93.50
2019-05-19T16:25:09.389Z,93.70
2019-05-19T16:27:38.586Z,94.00
2019-05-19T16:30:08.708Z,94.30
2019-05-19T16:32:37.785Z,94.90
2019-05-19T16:35:09.154Z,95.30
2019-05-19T16:37:38.270Z,95.00
2019-05-19T16:40:08.794Z,94.80
2019-05-19T16:42:37.563Z,95.40
2019-05-19T16:45:11.538Z,95.50
2019-05-19T16:47:40.256Z,95.70
2019-05-19T16:50:10.870Z,96.20
2019-05-19T16:52:39.878Z,96.20
2019-05-19T16:55:25.103Z,96.70
2019-05-19T16:57:54.383Z,95.90
2019-05-19T17:00:23.892Z,95.80
2019-05-19T17:02:54.661Z,95.30
2019-05-19T17:05:23.743Z,94.80
2019-05-19T17:07:52.592Z,94.80
2019-05-19T17:10:21.392Z,94.80
2019-05-19T17:12:50.488Z,94.90
2019-05-19T17:15:20.754Z,94.70
2019-05-19T17:17:49.931Z,94.50
2019-05-19T17:20:20.248Z,94.60
2019-05-19T17:22:48.986Z,94.40
2019-05-19T17:25:18.103Z,94.00
2019-05-19T17:27:47.227Z,93.80
2019-05-19T17:30:17.277Z,94.00
2019-05-19T17:32:46.314Z,94.20
2019-05-19T17:35:15.817Z,94.20
2019-05-19T17:37:44.933Z,94.40
2019-05-19T17:40:14.039Z,94.40
2019-05-19T17:42:42.768Z,94.50
2019-05-19T17:45:12.428Z,94.50
2019-05-19T17:47:41.178Z,94.70
2019-05-19T17:50:11.319Z,94.80
2019-05-19T17:52:40.081Z,95.10
2019-05-19T17:55:10.379Z,95.10
2019-05-19T17:57:40.169Z,94.80
2019-05-19T18:00:10.368Z,94.80
2019-05-19T18:02:39.897Z,94.90
2019-05-19T18:05:09.069Z,94.90
2019-05-19T18:07:38.177Z,95.10
2019-05-19T18:10:07.803Z,95.20
2019-05-19T18:12:36.868Z,95.20
2019-05-19T18:15:07.321Z,95.20
2019-05-19T18:17:36.399Z,95.20
2019-05-19T18:20:06.603Z,95.60
2019-05-19T18:22:35.722Z,95.90
2019-05-19T18:25:05.956Z,95.80
2019-05-19T18:27:34.689Z,96.10
2019-05-19T18:30:04.236Z,96.20
2019-05-19T18:32:33.387Z,96.10
2019-05-19T18:35:02.090Z,96.10
2019-05-19T18:37:30.936Z,96.00
2019-05-19T18:39:59.777Z,96.30
2019-05-19T18:42:28.915Z,96.40
2019-05-19T18:44:58.033Z,96.20
2019-05-19T18:47:26.754Z,96.60
2019-05-19T18:49:55.508Z,96.60
2019-05-19T18:52:24.680Z,96.60
2019-05-19T18:54:53.772Z,96.40
2019-05-19T18:57:22.882Z,96.60
2019-05-19T18:59:51.970Z,96.80
2019-05-19T19:02:21.077Z,96.80
2019-05-19T19:04:50.157Z,97.30
2019-05-19T19:07:18.840Z,97.00
2019-05-19T19:09:47.633Z,97.00
2019-05-19T19:12:16.742Z,97.00
2019-05-19T19:14:45.833Z,97.50
2019-05-19T19:17:14.920Z,97.50
2019-05-19T19:19:43.944Z,97.40
2019-05-19T19:22:12.964Z,97.30
2019-05-19T19:24:43.043Z,97.50
2019-05-19T19:27:12.134Z,97.90
2019-05-19T19:29:40.785Z,97.50
2019-05-19T19:32:09.930Z,97.70
2019-05-19T19:34:39.031Z,98.10
2019-05-19T19:37:07.757Z,98.00
2019-05-19T19:39:36.504Z,98.20
2019-05-19T19:42:05.319Z,98.20
2019-05-19T19:44:34.047Z,98.40
2019-05-19T19:47:02.835Z,98.20
2019-05-19T19:49:32.048Z,98.20
2019-05-19T19:52:02.229Z,98.70
2019-05-19T19:54:31.100Z,98.30
2019-05-19T19:57:00.508Z,98.70
2019-05-19T19:59:31.499Z,98.50
2019-05-19T20:02:00.614Z,98.70
2019-05-19T20:04:29.381Z,98.60
2019-05-19T20:06:58.033Z,98.90
2019-05-19T20:09:26.973Z,99.10
2019-05-19T20:11:56.079Z,99.30
2019-05-19T20:14:25.161Z,98.90
2019-05-19T20:16:54.378Z,99.30
2019-05-19T20:19:23.595Z,99.40
2019-05-19T20:21:52.665Z,99.40
2019-05-19T20:24:21.405Z,99.60
2019-05-19T20:26:50.165Z,99.40
2019-05-19T20:29:19.240Z,99.90
2019-05-19T20:31:48.013Z,99.40
2019-05-19T20:34:17.121Z,99.80
2019-05-19T20:36:45.842Z,99.40
2019-05-19T20:39:15.020Z,99.60
2019-05-19T20:41:44.217Z,99.90
2019-05-19T20:44:13.291Z,99.90
2019-05-19T20:46:42.412Z,99.80
2019-05-19T20:49:11.495Z,99.90
2019-05-19T20:51:40.139Z,99.80
2019-05-19T20:54:09.408Z,99.90
2019-05-19T20:56:38.133Z,99.90
2019-05-19T20:59:07.222Z,99.90
2019-05-19T21:01:36.369Z,99.90
2019-05-19T21:04:05.120Z,99.90
2019-05-19T21:06:33.839Z,99.90
2019-05-19T21:09:02.829Z,99.90
2019-05-19T21:11:31.935Z,99.90
2019-05-19T21:14:00.682Z,99.90
2019-05-19T21:16:29.409Z,99.90
2019-05-19T21:18:58.503Z,99.90
2019-05-19T21:21:27.267Z,99.90
2019-05-19T21:23:56.006Z,99.90
2019-05-19T21:26:25.078Z,99.90
2019-05-19T21:28:53.787Z,99.90
2019-05-19T21:31:22.504Z,99.90
2019-05-19T21:33:51.676Z,99.90
2019-05-19T21:36:20.775Z,99.90
2019-05-19T21:38:49.562Z,99.90
2019-05-19T21:41:18.315Z,99.90
2019-05-19T21:43:47.529Z,99.90
2019-05-19T21:46:16.318Z,99.90
2019-05-19T21:48:45.094Z,99.90
2019-05-19T21:51:14.101Z,99.90
2019-05-19T21:53:43.722Z,99.90
2019-05-19T21:56:12.815Z,99.90
2019-05-19T21:58:41.892Z,99.90
2019-05-19T22:01:22.776Z,99.90
2019-05-19T22:03:41.886Z,99.90
2019-05-19T22:06:10.948Z,99.90
2019-05-19T22:08:39.687Z,99.90
2019-05-19T22:11:08.554Z,99.90
2019-05-19T22:13:37.714Z,99.90
2019-05-19T22:16:12.856Z,99.90
2019-05-19T22:18:37.220Z,99.90
2019-05-19T22:21:05.936Z,99.90
2019-05-19T22:23:34.687Z,99.90
2019-05-19T22:26:03.839Z,99.90
2019-05-19T22:28:32.913Z,99.90
2019-05-19T22:31:02.031Z,99.90
2019-05-19T22:33:30.782Z,99.90
2019-05-19T22:36:00.076Z,99.90
2019-05-19T22:38:28.870Z,99.90
2019-05-19T22:40:57.637Z,99.90
2019-05-19T22:43:26.360Z,99.90
2019-05-19T22:45:55.035Z,99.90
2019-05-19T22:48:23.770Z,99.90
2019-05-19T22:50:52.936Z,99.90
2019-05-19T22:53:21.651Z,99.90
2019-05-19T22:55:50.410Z,99.90
2019-05-19T22:58:19.155Z,99.90
2019-05-19T23:00:47.882Z,99.90
2019-05-19T23:03:17.008Z,99.90
2019-05-19T23:05:45.713Z,99.90
2019-05-19T23:08:14.780Z,99.90
2019-05-19T23:10:43.871Z,99.90
2019-05-19T23:13:12.951Z,99.90
2019-05-19T23:15:42.074Z,99.90
2019-05-19T23:18:10.912Z,99.90
2019-05-19T23:20:39.919Z,99.90
2019-05-19T23:23:08.675Z,99.90
2019-05-19T23:25:37.413Z,99.90
2019-05-19T23:28:06.153Z,99.90
2019-05-19T23:30:35.315Z,99.90
2019-05-19T23:33:04.142Z,99.90
2019-05-19T23:35:33.187Z,99.90
2019-05-19T23:38:01.905Z,99.90
2019-05-19T23:40:30.979Z,99.90
2019-05-19T23:42:59.705Z,99.90
2019-05-19T23:45:29.342Z,99.90
2019-05-19T23:47:58.470Z,99.90
2019-05-19T23:50:27.207Z,99.90
2019-05-19T23:52:55.915Z,99.90
2019-05-19T23:55:25.036Z,99.90
2019-05-19T23:57:54.137Z,99.90
